Time;durP1;ratioP1;P1;durP2;ratioP2;P2;SDS_P1;SDS_P2;PMS_P1;PMS_P2;Temp;Humidity;BMP_temperature;BMP_pressure;BME280_temperature;BME280_humidity;BME280_pressure;Samples;Min_cycle;Max_cycle;Signal;HPM_P1;HPM_P2
2021/12/22 00:00:57;;;;;;;3.33;1.75;;;;;;;-18.42;62.36;98899.22;5013391;28;20071;-59
2021/12/22 00:03:25;;;;;;;13.25;1.35;;;;;;;-18.39;63.34;98904.19;5013744;28;20049;-59
2021/12/22 00:05:53;;;;;;;1.75;1.17;;;;;;;-18.43;62.87;98902.88;5013328;28;20049;-60
2021/12/22 00:08:20;;;;;;;3.92;1.98;;;;;;;-18.46;63.00;98903.19;5012074;28;20425;-59
2021/12/22 00:10:49;;;;;;;4.68;2.35;;;;;;;-18.48;62.53;98899.06;5012202;28;20092;-57
2021/12/22 00:13:16;;;;;;;6.80;2.35;;;;;;;-18.45;62.77;98899.53;5013719;28;20053;-60
2021/12/22 00:15:43;;;;;;;3.95;1.58;;;;;;;-18.49;63.10;98900.88;5013572;28;20050;-60
2021/12/22 00:18:10;;;;;;;1.80;1.33;;;;;;;-18.45;63.20;98893.44;5013553;28;20465;-60
2021/12/22 00:20:37;;;;;;;3.33;1.90;;;;;;;-18.43;63.18;98908.16;5012976;28;20409;-60
2021/12/22 00:23:04;;;;;;;4.70;2.42;;;;;;;-18.43;62.45;98908.16;5011251;28;20088;-58
2021/12/22 00:25:31;;;;;;;2.17;1.85;;;;;;;-18.44;63.04;98905.69;5013694;28;20104;-58
2021/12/22 00:27:59;;;;;;;2.40;1.25;;;;;;;-18.42;63.54;98903.72;5013230;28;20144;-60
2021/12/22 00:30:26;;;;;;;6.28;2.45;;;;;;;-18.46;62.21;98905.84;5012153;28;20513;-58
2021/12/22 00:33:01;;;;;;;4.13;1.17;;;;;;;-18.46;63.11;98900.53;5012675;28;20072;-57
2021/12/22 00:35:37;;;;;;;1.23;1.13;;;;;;;-18.49;62.55;98903.53;5013194;28;20129;-58
2021/12/22 00:38:05;;;;;;;6.45;1.92;;;;;;;-18.48;62.83;98920.28;5011466;28;20064;-58
2021/12/22 00:40:32;;;;;;;0.55;0.52;;;;;;;-18.49;63.08;98911.50;5013526;28;20504;-58
2021/12/22 00:42:59;;;;;;;5.85;2.10;;;;;;;-18.47;62.45;98912.16;5012771;28;20431;-60
2021/12/22 00:45:28;;;;;;;4.75;2.20;;;;;;;-18.42;63.17;98915.13;5013033;28;20417;-56
2021/12/22 00:47:55;;;;;;;5.78;2.40;;;;;;;-18.40;62.28;98923.75;5010855;28;20136;-59
2021/12/22 00:50:22;;;;;;;4.70;2.20;;;;;;;-18.40;63.35;98922.91;5012781;28;20060;-58
2021/12/22 00:52:50;;;;;;;1.48;0.65;;;;;;;-18.51;63.38;98926.72;5012643;28;20057;-58
2021/12/22 00:55:19;;;;;;;1.67;1.30;;;;;;;-18.60;63.50;98922.41;5012970;28;20132;-56
2021/12/22 00:57:48;;;;;;;0.60;0.60;;;;;;;-18.66;63.11;98930.22;5012789;28;20053;-59
2021/12/22 01:00:22;;;;;;;1.10;0.95;;;;;;;-18.85;62.32;98941.94;5012911;28;20419;-58
2021/12/22 01:02:49;;;;;;;6.38;2.45;;;;;;;-18.90;63.03;98928.34;5011015;28;20389;-65
2021/12/22 01:05:17;;;;;;;8.30;2.17;;;;;;;-18.96;62.98;98928.19;5012825;28;20513;-64
2021/12/22 01:07:47;;;;;;;1.85;1.35;;;;;;;-19.01;62.78;98923.38;5012552;28;20519;-64
2021/12/22 01:10:23;;;;;;;0.85;0.77;;;;;;;-19.00;62.86;98930.31;5010432;28;20417;-64
2021/12/22 01:12:53;;;;;;;1.65;1.55;;;;;;;-19.07;62.93;98931.97;5012203;28;20484;-64
2021/12/22 01:15:20;;;;;;;6.90;2.03;;;;;;;-19.07;63.15;98934.63;5012426;28;20060;-64
2021/12/22 01:17:50;;;;;;;0.52;0.52;;;;;;;-19.13;63.55;98935.25;5011110;28;20064;-60
2021/12/22 01:20:24;;;;;;;3.67;2.15;;;;;;;-19.16;62.96;98926.81;5011484;28;20128;-63
2021/12/22 01:23:01;;;;;;;1.48;1.38;;;;;;;-19.19;63.17;98933.25;5011866;28;20732;-64
2021/12/22 01:25:31;;;;;;;0.55;0.55;;;;;;;-19.25;63.75;98935.72;5012631;28;20077;-64
2021/12/22 01:27:58;;;;;;;0.40;0.40;;;;;;;-19.32;63.05;98938.19;5011998;28;20145;-64
2021/12/22 01:30:27;;;;;;;2.92;1.42;;;;;;;-19.41;63.15;98941.81;5012488;28;20042;-66
2021/12/22 01:32:56;;;;;;;2.78;1.27;;;;;;;-19.39;63.35;98934.53;5010906;28;20136;-64
2021/12/22 01:35:28;;;;;;;0.77;0.77;;;;;;;-19.39;63.32;98934.53;5010359;28;20049;-64
2021/12/22 01:37:56;;;;;;;0.43;0.43;;;;;;;-19.30;63.44;98941.53;5012027;28;20135;-64
2021/12/22 01:40:23;;;;;;;0.38;0.38;;;;;;;-19.33;63.72;98933.06;5010860;28;20084;-63
2021/12/22 01:42:51;;;;;;;19.65;1.92;;;;;;;-19.24;62.79;98932.06;5011558;28;20075;-64
2021/12/22 01:50:46;;;;;;;1.23;1.13;;;;;;;-19.28;63.76;98936.88;5012645;28;20054;-65
2021/12/22 01:53:21;;;;;;;1.45;0.65;;;;;;;-19.14;63.57;98930.13;5011685;28;20078;-66
2021/12/22 01:56:01;;;;;;;0.43;0.43;;;;;;;-19.09;62.76;98926.00;5012215;28;20081;-64
2021/12/22 01:58:35;;;;;;;2.03;1.02;;;;;;;-19.05;63.01;98927.31;5008726;28;20172;-66
2021/12/22 02:01:04;;;;;;;2.25;1.42;;;;;;;-19.05;62.98;98919.38;5010287;28;20069;-66
2021/12/22 02:03:31;;;;;;;2.63;1.65;;;;;;;-19.00;63.31;98919.72;5008652;28;20100;-64
2021/12/22 02:05:59;;;;;;;4.07;1.48;;;;;;;-18.98;62.27;98917.75;5011694;28;20050;-59
2021/12/22 02:08:25;;;;;;;1.92;1.45;;;;;;;-18.87;63.46;98928.00;5013599;28;20068;-58
2021/12/22 02:10:52;;;;;;;2.72;1.05;;;;;;;-18.83;62.05;98932.00;5016394;28;20133;-58
2021/12/22 02:13:26;;;;;;;16.35;1.25;;;;;;;-18.82;62.61;98925.72;5013617;28;20438;-56
2021/12/22 02:15:53;;;;;;;1.63;1.48;;;;;;;-18.80;62.40;98921.09;5016023;28;20049;-58
2021/12/22 02:18:21;;;;;;;1.48;1.38;;;;;;;-18.74;62.54;98928.38;5015512;28;20054;-57
2021/12/22 02:20:50;;;;;;;4.20;2.35;;;;;;;-18.71;63.54;98930.72;5014461;28;20145;-65
2021/12/22 02:23:17;;;;;;;1.85;0.98;;;;;;;-18.74;62.70;98928.38;5014420;28;20053;-66
2021/12/22 02:25:52;;;;;;;0.65;0.65;;;;;;;-18.73;63.01;98930.03;5015855;28;20054;-65
2021/12/22 02:28:25;;;;;;;0.70;0.70;;;;;;;-18.68;63.45;98937.50;5015163;28;20056;-64
2021/12/22 02:30:53;;;;;;;0.40;0.40;;;;;;;-18.66;63.44;98928.38;5015908;28;20068;-64
2021/12/22 02:36:08;;;;;;;1.50;1.10;;;;;;;-18.69;63.28;98918.09;5015704;28;20048;-65
2021/12/22 02:38:38;;;;;;;0.50;0.50;;;;;;;-18.69;62.50;98918.09;5011992;28;20456;-65
2021/12/22 02:41:10;;;;;;;0.75;0.75;;;;;;;-18.80;62.83;98913.13;5014160;28;20053;-64
2021/12/22 02:43:45;;;;;;;1.48;1.38;;;;;;;-18.81;63.65;98918.59;5011928;28;20426;-64
2021/12/22 02:46:16;;;;;;;1.08;1.05;;;;;;;-18.86;63.19;98913.78;5015289;28;20053;-63
2021/12/22 02:48:43;;;;;;;3.65;1.65;;;;;;;-18.80;62.88;98915.78;5013994;28;20058;-63
2021/12/22 02:51:10;;;;;;;3.15;0.93;;;;;;;-18.77;63.11;98918.13;5014708;28;20054;-60
2021/12/22 02:54:27;;;;;;;1.63;1.52;;;;;;;-18.81;63.17;98903.50;5011776;28;20132;-59
2021/12/22 02:56:31;;;;;;;2.28;1.45;;;;;;;-18.80;63.48;98905.19;5016517;28;20081;-61
2021/12/22 03:04:51;;;;;;;0.80;0.80;;;;;;;-18.76;62.95;98909.16;5019154;28;20080;-61
2021/12/22 03:07:19;;;;;;;17.48;4.10;;;;;;;-18.88;63.49;98913.13;5015179;28;20133;-60
2021/12/22 03:09:57;;;;;;;3.63;2.38;;;;;;;-18.76;63.41;98911.81;5014271;28;20520;-59
2021/12/22 03:12:24;;;;;;;4.65;1.80;;;;;;;-18.69;63.11;98904.03;5014779;28;20072;-60
2021/12/22 03:14:51;;;;;;;3.22;1.58;;;;;;;-18.74;63.07;98906.34;5014762;28;20063;-58
2021/12/22 03:17:18;;;;;;;1.52;0.98;;;;;;;-18.76;64.02;98911.81;5014972;28;20060;-61
2021/12/22 03:19:45;;;;;;;3.90;3.17;;;;;;;-18.73;63.69;98903.53;5012569;28;20478;-59
2021/12/22 03:22:17;;;;;;;4.25;2.88;;;;;;;-18.63;64.12;98906.84;5012636;28;20052;-61
2021/12/22 03:24:47;;;;;;;3.00;1.45;;;;;;;-18.62;63.93;98912.97;5014152;28;20053;-61
2021/12/22 03:27:14;;;;;;;4.13;2.20;;;;;;;-18.71;63.15;98908.66;5014500;28;20050;-58
2021/12/22 03:29:41;;;;;;;5.53;2.88;;;;;;;-18.68;63.86;98914.47;5013976;28;20543;-58
2021/12/22 03:32:09;;;;;;;2.03;1.48;;;;;;;-18.56;63.93;98913.16;5014650;28;20052;-56
2021/12/22 03:34:38;;;;;;;4.18;2.42;;;;;;;-18.52;63.59;98909.16;5013663;28;20053;-60
2021/12/22 03:37:06;;;;;;;0.93;0.93;;;;;;;-18.41;63.44;98916.81;5014493;28;20050;-59
2021/12/22 03:39:33;;;;;;;2.08;1.60;;;;;;;-18.38;62.84;98916.47;5013879;28;20064;-60
2021/12/22 03:42:02;;;;;;;3.92;2.67;;;;;;;-18.36;63.17;98914.41;5011136;28;20061;-61
2021/12/22 03:44:29;;;;;;;3.90;1.85;;;;;;;-18.44;63.32;98921.59;5013964;28;20052;-60
2021/12/22 03:46:58;;;;;;;2.58;1.20;;;;;;;-18.43;63.69;98924.09;5014632;28;20057;-54
2021/12/22 03:49:26;;;;;;;3.13;1.65;;;;;;;-18.33;63.35;98929.19;5013966;28;20136;-56
2021/12/22 03:51:53;;;;;;;0.60;0.60;;;;;;;-18.25;63.50;98930.00;5013734;28;20054;-55
2021/12/22 03:54:20;;;;;;;6.15;1.77;;;;;;;-18.27;62.92;98924.03;5014251;28;20085;-51
2021/12/22 03:56:49;;;;;;;0.40;0.40;;;;;;;-18.32;63.03;98931.69;5014051;28;20041;-57
2021/12/22 03:59:17;;;;;;;4.07;2.35;;;;;;;-18.37;63.47;98927.88;5014310;28;20061;-56
2021/12/22 04:01:45;;;;;;;4.80;2.28;;;;;;;-18.30;63.29;98923.56;5013484;28;20049;-57
2021/12/22 04:04:16;;;;;;;4.50;2.70;;;;;;;-18.29;63.89;98927.84;5013717;28;20104;-55
2021/12/22 04:06:44;;;;;;;3.47;1.17;;;;;;;-18.33;63.56;98927.34;5013734;28;20085;-57
2021/12/22 04:09:13;;;;;;;1.02;0.90;;;;;;;-18.35;63.10;98937.31;5010714;28;20513;-55
2021/12/22 04:11:40;;;;;;;8.70;3.05;;;;;;;-18.38;63.25;98937.69;5012016;28;20464;-56
2021/12/22 04:14:08;;;;;;;1.45;0.88;;;;;;;-18.40;63.17;98946.78;5009866;28;20056;-51
2021/12/22 04:16:35;;;;;;;4.35;1.10;;;;;;;-18.50;63.84;98943.47;5013595;28;20128;-53
2021/12/22 04:19:03;;;;;;;1.38;1.02;;;;;;;-18.52;63.65;98954.25;5012421;28;20077;-55
2021/12/22 04:21:30;;;;;;;0.98;0.90;;;;;;;-18.52;64.06;98956.91;5013502;28;20053;-56
2021/12/22 04:23:57;;;;;;;2.38;1.63;;;;;;;-18.55;62.92;98959.88;5013644;28;20413;-58
2021/12/22 04:26:26;;;;;;;2.22;1.25;;;;;;;-18.48;63.82;98963.53;5013015;28;20046;-57
2021/12/22 04:28:54;;;;;;;4.65;2.38;;;;;;;-18.50;63.04;98957.56;5013670;28;20060;-59
2021/12/22 04:31:20;;;;;;;0.70;0.70;;;;;;;-18.54;63.38;98953.56;5012890;28;20046;-53
2021/12/22 04:33:47;;;;;;;0.45;0.45;;;;;;;-18.57;63.36;98956.56;5013152;28;20060;-56
2021/12/22 04:36:14;;;;;;;2.30;1.50;;;;;;;-18.65;62.88;98958.38;5013179;28;20057;-52
2021/12/22 04:38:41;;;;;;;3.78;1.23;;;;;;;-18.71;62.94;98957.22;5013107;28;20056;-56
2021/12/22 04:41:08;;;;;;;3.95;2.33;;;;;;;-18.64;63.59;98958.22;5013119;28;20060;-54
2021/12/22 04:43:35;;;;;;;5.63;2.35;;;;;;;-18.62;62.28;98950.09;5012845;28;20424;-58
2021/12/22 04:46:03;;;;;;;2.35;1.48;;;;;;;-18.60;62.45;98950.78;5012946;28;20500;-57
2021/12/22 04:48:31;;;;;;;1.23;1.13;;;;;;;-18.69;63.22;98955.22;5012972;28;20465;-59
2021/12/22 04:50:58;;;;;;;1.02;0.85;;;;;;;-18.77;62.76;98957.88;5013436;28;20045;-53
2021/12/22 04:53:28;;;;;;;1.85;1.15;;;;;;;-18.86;63.16;98948.25;5012346;28;20532;-57
2021/12/22 04:55:56;;;;;;;1.60;1.30;;;;;;;-18.83;63.01;98953.22;5010315;28;20520;-51
2021/12/22 04:58:23;;;;;;;0.63;0.63;;;;;;;-18.78;62.75;98956.19;5012222;28;20049;-53
2021/12/22 05:00:50;;;;;;;0.93;0.82;;;;;;;-18.93;62.31;98939.25;5012805;28;20072;-64
2021/12/22 05:03:17;;;;;;;3.83;2.10;;;;;;;-18.91;63.61;98952.34;5012316;28;20054;-65
2021/12/22 05:05:44;;;;;;;0.90;0.85;;;;;;;-18.91;62.76;98955.00;5007865;28;20417;-65
2021/12/22 05:08:11;;;;;;;3.15;1.75;;;;;;;-18.91;63.43;98947.06;5010803;28;20157;-65
2021/12/22 05:10:38;;;;;;;0.63;0.63;;;;;;;-18.94;63.31;98950.88;5012563;28;20058;-65
2021/12/22 05:13:06;;;;;;;0.35;0.35;;;;;;;-18.99;62.77;98955.81;5012865;28;20050;-66
2021/12/22 05:15:38;;;;;;;3.15;1.50;;;;;;;-19.06;63.30;98940.72;5011084;28;20061;-66
2021/12/22 05:20:49;;;;;;;1.52;0.90;;;;;;;-19.04;63.05;98944.91;5009661;28;20050;-64
2021/12/22 05:23:18;;;;;;;2.33;1.63;;;;;;;-19.02;62.47;98947.38;5012114;28;20050;-65
2021/12/22 05:25:44;;;;;;;2.25;1.80;;;;;;;-19.05;62.76;98953.81;5012609;28;20111;-66
2021/12/22 05:28:11;;;;;;;1.85;1.35;;;;;;;-19.05;62.58;98945.84;5012165;28;20089;-65
2021/12/22 05:30:39;;;;;;;0.65;0.65;;;;;;;-19.03;63.67;98945.69;5027669;28;20572;-64
2021/12/22 05:33:06;;;;;;;0.68;0.68;;;;;;;-19.06;63.95;98946.88;5012265;28;20050;-64
2021/12/22 05:35:33;;;;;;;0.63;0.63;;;;;;;-19.08;63.52;98948.03;5009853;28;20053;-65
2021/12/22 05:38:00;;;;;;;1.70;1.50;;;;;;;-19.18;63.48;98949.97;5012623;28;20053;-63
2021/12/22 05:40:28;;;;;;;0.40;0.40;;;;;;;-19.17;63.63;98949.81;5010844;28;20100;-66
2021/12/22 05:42:56;;;;;;;0.50;0.50;;;;;;;-19.18;63.47;98953.44;5011279;28;20095;-66
2021/12/22 05:45:24;;;;;;;3.03;1.27;;;;;;;-19.21;63.24;98964.38;5011752;28;20425;-66
2021/12/22 05:47:52;;;;;;;0.40;0.40;;;;;;;-19.21;62.73;98966.19;5012032;28;20054;-65
2021/12/22 05:50:21;;;;;;;1.63;1.00;;;;;;;-19.22;62.96;98959.22;5010429;28;20468;-65
2021/12/22 05:52:50;;;;;;;1.73;1.55;;;;;;;-19.25;62.86;98960.38;5012293;28;20128;-64
2021/12/22 05:55:17;;;;;;;1.95;1.50;;;;;;;-19.20;62.90;98954.59;5012176;28;20058;-66
2021/12/22 05:57:45;;;;;;;1.38;1.25;;;;;;;-19.16;63.08;98956.78;5011277;28;20060;-65
2021/12/22 06:00:13;;;;;;;9.13;2.63;;;;;;;-19.16;62.84;98961.25;5009542;28;20077;-64
2021/12/22 06:02:40;;;;;;;7.03;2.45;;;;;;;-19.25;63.27;98947.16;5011943;28;20133;-65
2021/12/22 06:05:08;;;;;;;1.13;0.77;;;;;;;-19.19;63.34;98956.25;5011382;28;20045;-64
2021/12/22 06:07:35;;;;;;;1.38;0.95;;;;;;;-19.20;62.52;98963.38;5012080;28;20559;-65
2021/12/22 06:10:04;;;;;;;0.32;0.32;;;;;;;-19.25;63.13;98963.03;5011484;28;20060;-64
2021/12/22 06:12:31;;;;;;;0.47;0.47;;;;;;;-19.29;63.16;98960.88;5008122;28;20532;-63
2021/12/22 06:14:58;;;;;;;1.02;0.98;;;;;;;-19.33;63.24;98960.38;5011817;28;20530;-64
2021/12/22 06:17:24;;;;;;;2.20;1.58;;;;;;;-19.33;62.85;98968.31;5010628;28;20050;-65
2021/12/22 06:19:53;;;;;;;9.45;3.55;;;;;;;-19.28;63.15;98952.75;5009894;28;20064;-64
2021/12/22 06:22:20;;;;;;;7.72;3.47;;;;;;;-19.23;62.64;98961.03;5003742;28;20046;-65
2021/12/22 06:24:46;;;;;;;1.35;0.85;;;;;;;-19.22;63.07;98960.06;5002826;28;20056;-65
2021/12/22 06:27:14;;;;;;;8.95;3.80;;;;;;;-19.16;62.04;98964.72;5008859;28;20148;-65
2021/12/22 06:29:41;;;;;;;4.10;2.28;;;;;;;-19.07;62.84;98963.75;5010811;28;20056;-65
2021/12/22 06:32:08;;;;;;;6.93;3.22;;;;;;;-18.99;62.49;98966.41;5022440;28;20046;-65
2021/12/22 06:34:35;;;;;;;5.93;3.35;;;;;;;-18.91;62.97;98970.91;5007847;28;20053;-65
2021/12/22 06:37:02;;;;;;;4.68;2.05;;;;;;;-18.89;63.14;98969.78;5009497;28;20056;-65
2021/12/22 06:39:29;;;;;;;3.42;1.65;;;;;;;-18.84;62.29;98978.03;5008008;28;20060;-66
2021/12/22 06:41:56;;;;;;;2.35;1.80;;;;;;;-18.80;62.11;98984.69;5010956;28;20136;-65
2021/12/22 06:44:24;;;;;;;1.55;1.35;;;;;;;-18.89;62.29;98980.38;5009641;28;20045;-65
2021/12/22 06:46:51;;;;;;;1.13;0.80;;;;;;;-18.88;62.85;98987.31;5009081;28;20049;-65
2021/12/22 06:49:19;;;;;;;3.75;1.63;;;;;;;-18.90;62.91;98989.28;5009021;28;20060;-64
2021/12/22 06:51:45;;;;;;;12.43;3.25;;;;;;;-18.83;62.51;98985.03;5008228;28;20485;-64
2021/12/22 06:54:13;;;;;;;5.88;2.15;;;;;;;-18.85;61.85;98987.00;5008279;28;20140;-64
2021/12/22 06:56:40;;;;;;;3.33;1.27;;;;;;;-18.81;62.80;98993.63;5010021;28;20050;-65
2021/12/22 06:59:07;;;;;;;5.10;2.45;;;;;;;-18.81;62.51;98988.31;5009963;28;20161;-64
2021/12/22 07:01:35;;;;;;;3.35;1.50;;;;;;;-18.85;61.38;98997.59;5012889;28;20042;-65
2021/12/22 07:04:03;;;;;;;1.65;1.52;;;;;;;-18.86;61.89;98992.47;5011170;28;20046;-65
2021/12/22 07:06:31;;;;;;;4.63;1.25;;;;;;;-18.74;61.95;99005.25;5014047;28;20409;-64
2021/12/22 07:09:00;;;;;;;0.50;0.50;;;;;;;-18.65;62.67;99001.63;5012578;28;20061;-64
2021/12/22 07:11:27;;;;;;;0.55;0.55;;;;;;;-18.76;61.78;99001.94;5013151;28;20120;-64
2021/12/22 07:13:54;;;;;;;0.63;0.63;;;;;;;-18.78;62.34;98993.28;5011943;28;20045;-65
2021/12/22 07:16:21;;;;;;;4.80;2.38;;;;;;;-18.64;61.97;98999.78;5012298;28;20128;-65
2021/12/22 07:18:51;;;;;;;0.52;0.52;;;;;;;-18.55;61.18;99002.31;5010877;28;20081;-65
2021/12/22 07:21:19;;;;;;;1.73;1.10;;;;;;;-18.54;61.78;99001.31;5014509;28;20053;-65
2021/12/22 07:23:45;;;;;;;9.55;2.35;;;;;;;-18.49;61.77;99004.31;5011539;28;20054;-64
2021/12/22 07:26:15;;;;;;;0.80;0.65;;;;;;;-18.45;62.14;98999.50;5012063;28;20056;-64
2021/12/22 07:28:45;;;;;;;1.20;0.60;;;;;;;-18.43;61.74;99001.00;5010179;28;20050;-59
2021/12/22 07:31:13;;;;;;;1.10;0.73;;;;;;;-18.42;61.67;99002.63;5012173;28;20075;-58
2021/12/22 07:33:52;;;;;;;6.72;3.13;;;;;;;-18.41;61.59;99001.66;5011508;28;20053;-59
2021/12/22 07:36:18;;;;;;;3.20;1.60;;;;;;;-18.32;61.84;99003.31;5013837;28;20049;-57
2021/12/22 07:38:58;;;;;;;0.63;0.63;;;;;;;-18.25;61.89;99003.47;5013588;28;20075;-52
2021/12/22 07:41:25;;;;;;;4.68;1.33;;;;;;;-18.30;61.42;98998.63;5014170;28;20060;-56
2021/12/22 07:43:52;;;;;;;1.55;1.25;;;;;;;-18.26;61.63;99005.28;5013705;28;20056;-56
2021/12/22 07:46:20;;;;;;;1.50;1.40;;;;;;;-18.20;60.95;99012.59;5014627;28;20436;-61
2021/12/22 07:48:47;;;;;;;3.53;1.58;;;;;;;-18.24;60.44;99003.28;5013826;28;20042;-62
2021/12/22 07:51:14;;;;;;;3.28;1.00;;;;;;;-18.20;60.44;98994.03;5014290;28;20082;-61
2021/12/22 07:53:41;;;;;;;12.82;3.47;;;;;;;-18.07;61.24;99002.31;5013530;28;20049;-57
2021/12/22 07:56:08;;;;;;;0.82;0.65;;;;;;;-18.04;60.95;98994.00;5012614;28;20045;-59
2021/12/22 07:58:35;;;;;;;0.70;0.70;;;;;;;-18.00;61.08;98992.69;5011871;28;20200;-57
2021/12/22 08:01:02;;;;;;;5.85;2.70;;;;;;;-17.87;60.27;98994.84;5012538;28;20061;-59
2021/12/22 08:03:29;;;;;;;3.75;1.98;;;;;;;-17.75;60.68;99010.25;5014098;28;20403;-58
2021/12/22 08:06:13;;;;;;;5.93;1.20;;;;;;;-17.59;59.40;98993.47;5013135;28;20556;-59
2021/12/22 08:08:41;;;;;;;4.95;1.50;;;;;;;-17.39;59.99;99005.34;5013508;28;20488;-59
2021/12/22 08:11:08;;;;;;;0.85;0.85;;;;;;;-17.12;59.09;98990.81;5014021;28;20060;-60
2021/12/22 08:13:35;;;;;;;5.28;2.15;;;;;;;-16.72;58.52;99003.91;5013739;28;20077;-58
2021/12/22 08:16:03;;;;;;;1.60;1.30;;;;;;;-16.43;58.15;98998.78;5011850;28;20160;-59
2021/12/22 08:18:30;;;;;;;2.35;1.88;;;;;;;-16.56;58.34;99009.16;5013719;28;20088;-57
2021/12/22 08:20:57;;;;;;;2.70;1.75;;;;;;;-16.60;58.78;99013.16;5013178;28;20148;-57
2021/12/22 08:23:23;;;;;;;3.92;2.28;;;;;;;-16.63;58.92;99005.53;5013435;28;20589;-60
2021/12/22 08:25:51;;;;;;;5.03;2.05;;;;;;;-16.31;58.25;99013.28;5013188;28;20054;-58
2021/12/22 08:28:18;;;;;;;6.80;3.25;;;;;;;-15.83;57.68;99011.09;5013662;28;20140;-56
2021/12/22 08:30:45;;;;;;;1.77;1.58;;;;;;;-15.61;56.54;99018.22;5013295;28;20053;-58
2021/12/22 08:33:33;;;;;;;18.30;2.55;;;;;;;-15.65;57.17;99006.28;5013261;28;20092;-56
2021/12/22 08:38:55;;;;;;;7.88;3.22;;;;;;;-15.83;58.18;99007.59;5012829;28;20050;-61
2021/12/22 08:41:26;;;;;;;4.97;2.80;;;;;;;-15.96;58.11;99007.38;5009986;28;20054;-58
2021/12/22 08:43:56;;;;;;;8.88;3.65;;;;;;;-16.02;58.49;99000.13;5012014;28;20053;-58
2021/12/22 08:46:24;;;;;;;5.10;2.83;;;;;;;-16.06;58.72;99001.47;5009740;28;20576;-60
2021/12/22 08:48:51;;;;;;;5.30;2.78;;;;;;;-16.06;58.48;98996.97;5012369;28;20054;-56
2021/12/22 08:51:18;;;;;;;5.95;3.38;;;;;;;-16.09;58.98;98999.16;5013188;28;20133;-59
2021/12/22 08:53:45;;;;;;;5.00;2.65;;;;;;;-16.16;59.01;98992.91;5012889;28;20141;-55
2021/12/22 08:56:12;;;;;;;2.30;1.63;;;;;;;-16.31;58.14;99006.16;5011991;28;20132;-58
2021/12/22 08:58:40;;;;;;;43.13;15.43;;;;;;;-16.52;59.06;99000.66;5012825;28;20521;-56
2021/12/22 09:01:07;;;;;;;2.40;1.63;;;;;;;-16.60;59.63;99003.34;5012550;28;20053;-58
2021/12/22 09:03:35;;;;;;;4.85;2.83;;;;;;;-16.57;58.35;99008.34;5013085;28;20497;-59
2021/12/22 09:06:03;;;;;;;2.22;1.35;;;;;;;-16.49;58.65;99007.47;5012523;28;20077;-60
2021/12/22 09:08:30;;;;;;;2.80;1.50;;;;;;;-16.76;58.64;99005.28;5012492;28;20424;-56
2021/12/22 09:10:57;;;;;;;8.55;2.65;;;;;;;-16.81;59.38;99007.63;5012113;28;20462;-57
2021/12/22 09:13:25;;;;;;;6.00;2.60;;;;;;;-16.66;59.30;99003.22;5012929;28;20049;-57
2021/12/22 09:15:51;;;;;;;1.05;0.95;;;;;;;-16.59;58.13;99009.53;5012119;28;20429;-61
2021/12/22 09:18:19;;;;;;;1.20;0.88;;;;;;;-16.49;58.63;99000.31;5012581;28;20053;-59
2021/12/22 09:20:46;;;;;;;62.05;15.52;;;;;;;-16.52;58.34;98995.34;5011030;28;20042;-60
2021/12/22 09:23:14;;;;;;;9.73;2.95;;;;;;;-16.41;58.14;99010.84;5010857;28;20042;-54
2021/12/22 09:25:42;;;;;;;4.47;2.75;;;;;;;-16.35;58.43;99012.00;5012190;28;20177;-58
2021/12/22 09:28:12;;;;;;;5.70;3.13;;;;;;;-16.28;58.21;99003.13;5008537;28;20100;-55
2021/12/22 09:30:43;;;;;;;2.90;2.38;;;;;;;-16.20;57.74;98999.59;5012293;28;20473;-56
2021/12/22 09:33:14;;;;;;;6.10;2.58;;;;;;;-16.31;58.19;99003.50;5008837;28;20137;-56
2021/12/22 09:35:43;;;;;;;2.45;1.73;;;;;;;-16.33;59.32;99004.66;5011907;28;20045;-59
2021/12/22 09:38:10;;;;;;;3.20;2.67;;;;;;;-16.39;59.20;99010.69;5008750;28;20086;-61
2021/12/22 09:40:37;;;;;;;2.75;2.20;;;;;;;-16.32;58.52;99006.31;5010947;28;20073;-58
2021/12/22 09:43:06;;;;;;;9.07;3.92;;;;;;;-16.35;58.70;99006.69;5011925;28;20420;-56
2021/12/22 09:45:36;;;;;;;5.22;3.20;;;;;;;-16.35;58.04;99001.34;5012332;28;20050;-62
2021/12/22 09:50:52;;;;;;;4.55;1.70;;;;;;;-16.53;58.54;99008.81;5011880;28;20042;-59
2021/12/22 09:53:28;;;;;;;9.65;3.65;;;;;;;-16.55;58.39;99005.50;5024834;28;20046;-61
2021/12/22 09:55:58;;;;;;;4.05;2.13;;;;;;;-16.55;59.20;99008.16;5010186;28;20619;-59
2021/12/22 09:58:26;;;;;;;2.63;1.67;;;;;;;-16.56;58.18;99007.31;5011931;28;20140;-57
2021/12/22 10:00:53;;;;;;;3.63;1.67;;;;;;;-16.73;58.41;99007.59;5011956;28;20476;-57
2021/12/22 10:03:22;;;;;;;3.15;2.42;;;;;;;-16.90;58.82;99004.19;5012053;28;20092;-61
2021/12/22 10:05:50;;;;;;;7.32;2.83;;;;;;;-16.98;58.93;99014.00;5011364;28;20056;-55
2021/12/22 10:08:27;;;;;;;4.43;2.25;;;;;;;-16.83;58.55;99012.28;5010495;28;21725;-58
2021/12/22 10:11:12;;;;;;;3.80;2.13;;;;;;;-16.78;58.83;99017.91;5008068;28;20525;-56
2021/12/22 10:13:44;;;;;;;1.42;1.15;;;;;;;-16.76;58.45;99019.38;5009337;28;20502;-60
2021/12/22 10:16:22;;;;;;;2.53;1.85;;;;;;;-16.62;57.82;99020.50;5006564;28;20744;-57
2021/12/22 10:19:08;;;;;;;7.65;3.30;;;;;;;-16.66;58.99;99008.53;5011348;28;20053;-57
2021/12/22 10:22:00;;;;;;;13.73;3.78;;;;;;;-16.70;58.09;99012.56;5010630;28;20042;-59
2021/12/22 10:24:40;;;;;;;5.72;3.22;;;;;;;-16.73;58.70;99008.41;5009409;28;20050;-57
2021/12/22 10:27:17;;;;;;;3.40;2.45;;;;;;;-16.74;59.41;99014.72;5011226;28;20053;-51
2021/12/22 10:29:45;;;;;;;12.43;3.55;;;;;;;-16.85;58.59;99014.28;5010982;28;20133;-59
2021/12/22 10:32:15;;;;;;;2.63;1.38;;;;;;;-16.96;59.74;99018.16;5014184;28;20500;-58
2021/12/22 10:35:03;;;;;;;1.48;1.38;;;;;;;-17.04;59.10;99004.06;5011960;28;20054;-59
2021/12/22 10:37:35;;;;;;;3.00;2.08;;;;;;;-17.04;59.11;99004.06;5014427;28;20057;-56
2021/12/22 10:40:22;;;;;;;4.45;1.80;;;;;;;-17.10;59.22;99002.09;5012307;28;20050;-59
2021/12/22 10:42:49;;;;;;;3.83;1.42;;;;;;;-17.20;60.41;99004.13;5013266;28;20416;-58
2021/12/22 10:45:18;;;;;;;7.45;3.03;;;;;;;-17.20;59.10;99015.59;5015080;28;20065;-59
2021/12/22 10:50:40;;;;;;;1.73;1.45;;;;;;;-17.38;58.89;99011.50;5012237;28;20554;-58
2021/12/22 10:53:08;;;;;;;3.55;2.42;;;;;;;-17.62;60.00;99015.88;5012624;28;20053;-56
2021/12/22 10:55:41;;;;;;;2.22;2.05;;;;;;;-17.71;59.49;99016.88;5011506;28;20445;-57
2021/12/22 10:58:21;;;;;;;28.58;7.15;;;;;;;-17.75;60.84;99020.88;5012387;28;20045;-59
2021/12/22 11:01:00;;;;;;;;;;;;;;;-17.68;60.28;99018.41;5014073;28;20149;-59
2021/12/22 11:03:41;;;;;;;11.15;5.80;;;;;;;-17.72;60.12;99019.72;5011603;28;19937;-57
2021/12/22 11:06:27;;;;;;;10.43;3.55;;;;;;;-17.75;59.64;99018.22;5012196;28;20137;-59
2021/12/22 11:08:55;;;;;;;7.47;3.33;;;;;;;-17.72;59.79;99027.66;5011562;28;20069;-57
2021/12/22 11:11:22;;;;;;;13.40;2.55;;;;;;;-17.67;60.80;99034.16;5011207;28;20398;-58
2021/12/22 11:14:09;;;;;;;4.03;1.42;;;;;;;-17.65;59.72;99039.31;5013422;28;20042;-58
2021/12/22 11:16:54;;;;;;;2.10;1.30;;;;;;;-17.74;59.88;99038.47;5012937;28;20580;-56
2021/12/22 11:19:23;;;;;;;1.52;1.42;;;;;;;-17.87;60.78;99038.16;5011808;28;20042;-58
2021/12/22 11:22:25;;;;;;;3.83;1.88;;;;;;;-17.87;59.68;99048.75;5011345;28;20049;-56
2021/12/22 11:24:54;;;;;;;0.43;0.43;;;;;;;-17.88;60.67;99047.13;5011417;28;20116;-59
2021/12/22 11:27:24;;;;;;;4.63;3.33;;;;;;;-17.92;60.76;99056.38;5014166;28;20097;-60
2021/12/22 11:29:57;;;;;;;6.00;2.45;;;;;;;-18.02;59.92;99070.81;5011114;28;20050;-59
2021/12/22 11:32:27;;;;;;;3.75;3.08;;;;;;;-18.08;59.44;99060.84;5013443;28;20124;-59
2021/12/22 11:35:07;;;;;;;2.55;1.45;;;;;;;-18.10;60.82;99063.66;5009218;28;20133;-59
2021/12/22 11:37:35;;;;;;;0.73;0.73;;;;;;;-18.13;59.43;99068.47;5012199;28;20081;-59
2021/12/22 11:40:05;;;;;;;0.75;0.73;;;;;;;-18.15;59.86;99075.78;5009881;28;20054;-58
2021/12/22 11:42:37;;;;;;;;;;;;;;;-18.21;60.06;99082.56;5014070;28;20077;-59
2021/12/22 11:45:10;;;;;;;5.30;1.85;;;;;;;-18.26;59.41;99079.59;5011590;28;19960;-59
2021/12/22 11:47:41;;;;;;;0.60;0.60;;;;;;;-18.24;59.27;99068.81;5012476;28;20561;-61
2021/12/22 11:50:35;;;;;;;0.98;0.90;;;;;;;-18.32;60.11;99066.97;5009489;28;20517;-59
2021/12/22 11:53:08;;;;;;;0.63;0.57;;;;;;;-18.41;59.76;99070.63;5004066;28;20061;-56
2021/12/22 11:55:48;;;;;;;0.52;0.52;;;;;;;-18.48;60.04;99074.91;5011979;28;20383;-58
2021/12/22 11:58:25;;;;;;;1.13;1.00;;;;;;;-18.61;59.76;99079.00;5011004;28;20145;-60
2021/12/22 12:01:00;;;;;;;0.50;0.50;;;;;;;-18.60;59.69;99081.50;5014222;28;20084;-62